Time;durP1;ratioP1;P1;durP2;ratioP2;P2;SDS_P1;SDS_P2;PMS_P1;PMS_P2;Temp;Humidity;BMP_temperature;BMP_pressure;BME280_temperature;BME280_humidity;BME280_pressure;Samples;Min_cycle;Max_cycle;Signal;HPM_P1;HPM_P2
2022/03/03 00:24:09;;;;;;;18.83;7.82;;;;;;;;;;5022712;28;20071;-79
2022/03/03 00:26:36;;;;;;;18.85;8.23;;;;;;;;;;5008985;28;20097;-79
2022/03/03 00:29:01;;;;;;;22.20;9.55;;;;;;;;;;5011142;28;20038;-81
2022/03/03 00:31:28;;;;;;;20.92;7.07;;;;;;;;;;5014750;28;20104;-80
2022/03/03 00:33:54;;;;;;;17.83;7.47;;;;;;;;;;5013978;28;20104;-81
2022/03/03 00:36:19;;;;;;;11.93;7.80;;;;;;;;;;5015049;28;20049;-80
2022/03/03 00:38:45;;;;;;;18.25;7.28;;;;;;;;;;5028477;28;20249;-80
2022/03/03 00:41:11;;;;;;;13.23;6.53;;;;;;;;;;5012006;28;20395;-79
2022/03/03 00:43:37;;;;;;;8.10;6.05;;;;;;;;;;5010620;28;20136;-78
2022/03/03 00:46:03;;;;;;;10.38;5.63;;;;;;;;;;5013785;28;20160;-79
2022/03/03 00:48:29;;;;;;;10.50;6.82;;;;;;;;;;5031324;28;20045;-78
2022/03/03 00:50:55;;;;;;;15.18;6.97;;;;;;;;;;5035016;28;20509;-78
2022/03/03 00:53:23;;;;;;;10.48;7.22;;;;;;;;;;5031158;28;20041;-79
2022/03/03 00:55:49;;;;;;;16.25;7.78;;;;;;;;;;5013746;28;20111;-80
2022/03/03 00:58:15;;;;;;;30.90;12.27;;;;;;;;;;5031842;28;20048;-80
2022/03/03 01:00:41;;;;;;;34.58;13.98;;;;;;;;;;5030633;28;20049;-78
2022/03/03 01:03:07;;;;;;;25.55;12.13;;;;;;;;;;5013328;28;20053;-78
2022/03/03 01:05:33;;;;;;;18.20;10.15;;;;;;;;;;5013577;28;20492;-78
2022/03/03 01:07:59;;;;;;;10.88;8.63;;;;;;;;;;5013159;28;20049;-79
2022/03/03 01:10:24;;;;;;;13.20;6.43;;;;;;;;;;5030082;28;20045;-78
2022/03/03 01:12:50;;;;;;;12.90;7.78;;;;;;;;;;5030683;28;20132;-79
2022/03/03 01:15:16;;;;;;;7.63;4.22;;;;;;;;;;5030982;28;20101;-79
2022/03/03 01:17:42;;;;;;;14.57;8.93;;;;;;;;;;5031077;28;20421;-79
2022/03/03 01:20:08;;;;;;;16.50;8.68;;;;;;;;;;5029426;28;20030;-79
2022/03/03 01:22:34;;;;;;;13.20;8.82;;;;;;;;;;5031898;28;20053;-78
2022/03/03 01:25:00;;;;;;;20.88;9.52;;;;;;;;;;5041865;28;20073;-79
2022/03/03 01:27:26;;;;;;;11.13;8.10;;;;;;;;;;5014925;28;20064;-79
2022/03/03 01:29:52;;;;;;;14.75;8.65;;;;;;;;;;5029005;28;20045;-80
2022/03/03 01:32:18;;;;;;;15.88;7.65;;;;;;;;;;5030433;28;20037;-79
2022/03/03 01:34:44;;;;;;;19.55;8.23;;;;;;;;;;5012624;28;20041;-79
2022/03/03 01:37:10;;;;;;;21.45;9.15;;;;;;;;;;5012448;28;20576;-79
2022/03/03 01:39:36;;;;;;;16.60;8.20;;;;;;;;;;5030279;28;20084;-78
2022/03/03 01:42:02;;;;;;;25.20;9.57;;;;;;;;;;5012165;28;20497;-79
2022/03/03 01:44:27;;;;;;;15.05;9.95;;;;;;;;;;5028903;28;20038;-76
2022/03/03 01:46:54;;;;;;;17.00;8.10;;;;;;;;;;4999457;28;20076;-78
2022/03/03 01:49:20;;;;;;;11.90;8.18;;;;;;;;;;5010368;28;20406;-79
2022/03/03 01:51:46;;;;;;;12.95;8.57;;;;;;;;;;5012334;28;20061;-78
2022/03/03 01:54:12;;;;;;;13.93;8.95;;;;;;;;;;5012980;28;20037;-77
2022/03/03 01:56:39;;;;;;;9.75;7.72;;;;;;;;;;5035942;28;20128;-77
2022/03/03 01:59:05;;;;;;;17.92;8.93;;;;;;;;;;5003009;28;20037;-78
2022/03/03 02:01:31;;;;;;;12.35;8.60;;;;;;;;;;5004271;28;20153;-78
2022/03/03 02:03:57;;;;;;;11.52;8.88;;;;;;;;;;5005458;28;20037;-78
2022/03/03 02:06:24;;;;;;;14.43;7.20;;;;;;;;;;5022264;28;20050;-77
2022/03/03 02:08:51;;;;;;;16.63;8.57;;;;;;;;;;5018448;28;20054;-78
2022/03/03 02:11:17;;;;;;;13.45;8.25;;;;;;;;;;5014095;28;20049;-79
2022/03/03 02:13:43;;;;;;;17.30;9.10;;;;;;;;;;5017249;28;20143;-79
2022/03/03 02:16:09;;;;;;;20.02;9.57;;;;;;;;;;5012623;28;20041;-78
2022/03/03 02:18:38;;;;;;;13.95;9.23;;;;;;;;;;5010888;28;20045;-78
2022/03/03 02:21:04;;;;;;;14.25;8.88;;;;;;;;;;4992494;28;20060;-77
2022/03/03 02:23:30;;;;;;;18.50;9.50;;;;;;;;;;5010294;28;20033;-77
2022/03/03 02:25:56;;;;;;;11.07;7.22;;;;;;;;;;5009412;28;20066;-78
2022/03/03 02:28:22;;;;;;;16.77;8.80;;;;;;;;;;4958996;28;20094;-79
2022/03/03 02:30:48;;;;;;;14.27;9.48;;;;;;;;;;4992162;28;20041;-78
2022/03/03 02:33:14;;;;;;;13.63;9.18;;;;;;;;;;5008272;28;20517;-77
2022/03/03 02:35:39;;;;;;;17.23;7.93;;;;;;;;;;5009855;28;20129;-79
2022/03/03 02:38:06;;;;;;;11.00;8.45;;;;;;;;;;4992197;28;20132;-79
2022/03/03 02:40:31;;;;;;;10.45;7.05;;;;;;;;;;4992550;28;20049;-78
2022/03/03 02:42:58;;;;;;;13.18;8.25;;;;;;;;;;4992528;28;20113;-79
2022/03/03 02:45:24;;;;;;;14.43;8.93;;;;;;;;;;5009939;28;20050;-78
2022/03/03 02:47:50;;;;;;;9.20;7.30;;;;;;;;;;5009578;28;20477;-78
2022/03/03 02:50:16;;;;;;;8.27;7.45;;;;;;;;;;4991816;28;20041;-78
2022/03/03 02:52:42;;;;;;;17.23;9.65;;;;;;;;;;4992039;28;20128;-78
2022/03/03 02:55:08;;;;;;;18.38;10.13;;;;;;;;;;5008141;28;20133;-78
2022/03/03 03:00:18;;;;;;;13.02;8.07;;;;;;;;;;4991010;28;20093;-79
2022/03/03 03:02:45;;;;;;;10.23;5.47;;;;;;;;;;4994810;28;20046;-80
2022/03/03 03:05:10;;;;;;;17.80;8.52;;;;;;;;;;5012996;28;20045;-78
2022/03/03 03:07:36;;;;;;;9.48;6.95;;;;;;;;;;4995894;28;20528;-80
2022/03/03 03:10:03;;;;;;;9.25;8.18;;;;;;;;;;5013403;28;20041;-80
2022/03/03 03:12:29;;;;;;;18.85;9.82;;;;;;;;;;5013719;28;20038;-81
2022/03/03 03:14:54;;;;;;;14.38;8.85;;;;;;;;;;5012793;28;20049;-80
2022/03/03 03:17:20;;;;;;;10.77;9.63;;;;;;;;;;4995430;28;20536;-79
2022/03/03 03:19:47;;;;;;;16.52;7.60;;;;;;;;;;5012984;28;20049;-79
2022/03/03 03:22:12;;;;;;;8.85;7.93;;;;;;;;;;4995124;28;20065;-79
2022/03/03 03:24:38;;;;;;;10.90;7.20;;;;;;;;;;5012798;28;20054;-77
2022/03/03 03:27:05;;;;;;;8.73;4.25;;;;;;;;;;5013864;28;20090;-77
2022/03/03 03:29:31;;;;;;;12.57;8.80;;;;;;;;;;5013094;28;20046;-75
2022/03/03 03:31:57;;;;;;;11.00;6.63;;;;;;;;;;4994939;28;20034;-77
2022/03/03 03:34:22;;;;;;;15.88;9.23;;;;;;;;;;5012770;28;20097;-76
2022/03/03 03:36:48;;;;;;;12.20;6.85;;;;;;;;;;5012318;28;20067;-77
2022/03/03 03:39:14;;;;;;;12.25;7.90;;;;;;;;;;4994657;28;20042;-75
2022/03/03 03:41:40;;;;;;;9.43;7.55;;;;;;;;;;5012205;28;20050;-76
2022/03/03 03:44:06;;;;;;;12.45;7.57;;;;;;;;;;5012418;28;20371;-76
2022/03/03 03:46:32;;;;;;;10.95;8.48;;;;;;;;;;4978505;28;20042;-76
2022/03/03 03:48:57;;;;;;;4.95;4.40;;;;;;;;;;4994391;28;20462;-76
2022/03/03 03:51:23;;;;;;;9.52;6.45;;;;;;;;;;5010804;28;20496;-76
2022/03/03 03:53:49;;;;;;;7.70;5.60;;;;;;;;;;4994399;28;20054;-77
2022/03/03 03:56:15;;;;;;;14.40;7.47;;;;;;;;;;4993975;28;20417;-76
2022/03/03 03:58:40;;;;;;;9.88;6.40;;;;;;;;;;5011554;28;20041;-76
2022/03/03 04:01:06;;;;;;;11.18;6.15;;;;;;;;;;5011547;28;20057;-77
2022/03/03 04:03:32;;;;;;;7.63;5.88;;;;;;;;;;5010925;28;20041;-77
2022/03/03 04:05:57;;;;;;;8.35;6.65;;;;;;;;;;5011777;28;20050;-77
2022/03/03 04:08:23;;;;;;;10.30;6.50;;;;;;;;;;4994119;28;20037;-78
2022/03/03 04:10:49;;;;;;;9.88;7.03;;;;;;;;;;4994151;28;20521;-77
2022/03/03 04:13:15;;;;;;;10.48;7.05;;;;;;;;;;4993035;28;20073;-76
2022/03/03 04:15:41;;;;;;;9.30;7.03;;;;;;;;;;4994267;28;20041;-77
2022/03/03 04:18:07;;;;;;;7.43;6.32;;;;;;;;;;4993827;28;20059;-75
2022/03/03 04:20:33;;;;;;;9.68;6.95;;;;;;;;;;5011623;28;20398;-74
2022/03/03 04:22:59;;;;;;;9.52;8.55;;;;;;;;;;5011400;28;20628;-75
2022/03/03 04:25:25;;;;;;;8.48;7.13;;;;;;;;;;5010341;28;20046;-75
2022/03/03 04:27:51;;;;;;;9.13;7.03;;;;;;;;;;5011609;28;20045;-75
2022/03/03 04:30:17;;;;;;;15.07;8.05;;;;;;;;;;5011154;28;20037;-75
2022/03/03 04:32:42;;;;;;;11.82;6.68;;;;;;;;;;5011334;28;20041;-75
2022/03/03 04:35:08;;;;;;;10.02;6.63;;;;;;;;;;5009948;28;20513;-76
2022/03/03 04:37:34;;;;;;;9.10;6.93;;;;;;;;;;5011357;28;20046;-75
2022/03/03 04:40:00;;;;;;;18.98;7.57;;;;;;;;;;5011138;28;20057;-76
2022/03/03 04:42:26;;;;;;;8.77;6.82;;;;;;;;;;5011172;28;20120;-75
2022/03/03 04:44:52;;;;;;;17.08;7.50;;;;;;;;;;5025210;28;20034;-75
2022/03/03 04:47:19;;;;;;;9.80;6.70;;;;;;;;;;4975985;28;20046;-76
2022/03/03 04:49:44;;;;;;;12.30;7.15;;;;;;;;;;5012513;28;20037;-75
2022/03/03 04:52:10;;;;;;;11.65;7.22;;;;;;;;;;5011706;28;20037;-75
2022/03/03 04:54:36;;;;;;;9.80;7.00;;;;;;;;;;4993490;28;20069;-76
2022/03/03 04:57:02;;;;;;;8.68;7.45;;;;;;;;;;5010636;28;20041;-77
2022/03/03 04:59:28;;;;;;;8.07;6.93;;;;;;;;;;5011020;28;20042;-76
2022/03/03 05:01:54;;;;;;;11.40;6.32;;;;;;;;;;5002136;28;20050;-75
2022/03/03 05:04:20;;;;;;;12.00;8.30;;;;;;;;;;5006614;28;20068;-74
2022/03/03 05:06:46;;;;;;;15.05;8.02;;;;;;;;;;5010842;28;20045;-75
2022/03/03 05:09:12;;;;;;;21.73;10.32;;;;;;;;;;5010353;28;20042;-74
2022/03/03 05:11:38;;;;;;;8.43;7.10;;;;;;;;;;5000391;28;20049;-73
2022/03/03 05:14:04;;;;;;;9.50;8.13;;;;;;;;;;4990676;28;20038;-74
2022/03/03 05:16:30;;;;;;;6.57;5.93;;;;;;;;;;4953519;28;20501;-75
2022/03/03 05:18:56;;;;;;;12.18;5.95;;;;;;;;;;5009531;28;20499;-73
2022/03/03 05:21:22;;;;;;;17.27;7.32;;;;;;;;;;5017332;28;20049;-72
2022/03/03 05:23:48;;;;;;;4.43;4.13;;;;;;;;;;5009519;28;20390;-73
2022/03/03 05:26:13;;;;;;;6.53;5.40;;;;;;;;;;5009194;28;20108;-72
2022/03/03 05:28:39;;;;;;;12.45;4.93;;;;;;;;;;5009677;28;20080;-72
2022/03/03 05:31:05;;;;;;;7.35;6.63;;;;;;;;;;4992174;28;20046;-74
2022/03/03 05:33:32;;;;;;;16.90;8.50;;;;;;;;;;5003589;28;20049;-74
2022/03/03 05:35:58;;;;;;;13.13;9.27;;;;;;;;;;5002942;28;20052;-74
2022/03/03 05:38:26;;;;;;;19.65;10.15;;;;;;;;;;5011297;28;20091;-75
2022/03/03 05:40:53;;;;;;;14.30;8.95;;;;;;;;;;5006149;28;20049;-74
2022/03/03 05:43:19;;;;;;;14.98;9.25;;;;;;;;;;5013516;28;20037;-74
2022/03/03 05:45:46;;;;;;;18.05;10.07;;;;;;;;;;5028502;28;20042;-79
2022/03/03 05:48:12;;;;;;;10.88;9.48;;;;;;;;;;4987493;28;20038;-78
2022/03/03 05:50:38;;;;;;;13.23;9.25;;;;;;;;;;4988974;28;20061;-78
2022/03/03 05:53:04;;;;;;;9.77;8.05;;;;;;;;;;5010001;28;20072;-79
2022/03/03 05:55:30;;;;;;;11.77;8.48;;;;;;;;;;5007037;28;20065;-77
2022/03/03 05:57:56;;;;;;;23.80;10.50;;;;;;;;;;5025779;28;20037;-76
2022/03/03 06:00:22;;;;;;;10.90;9.50;;;;;;;;;;5028539;28;20045;-75
2022/03/03 06:02:52;;;;;;;12.85;9.27;;;;;;;;;;5028911;28;20045;-77
2022/03/03 06:05:18;;;;;;;13.65;9.93;;;;;;;;;;4994660;28;20404;-78
2022/03/03 06:07:45;;;;;;;10.00;8.18;;;;;;;;;;5025880;28;20132;-79
2022/03/03 06:10:10;;;;;;;27.02;13.80;;;;;;;;;;5008790;28;20414;-77
2022/03/03 06:12:40;;;;;;;12.73;9.32;;;;;;;;;;5009348;28;20061;-78
2022/03/03 06:15:06;;;;;;;38.10;15.35;;;;;;;;;;5003902;28;20129;-79
2022/03/03 06:17:34;;;;;;;26.40;12.00;;;;;;;;;;5029236;28;20132;-77
2022/03/03 06:20:00;;;;;;;31.42;14.30;;;;;;;;;;5029091;28;20836;-78
2022/03/03 06:22:26;;;;;;;32.17;14.63;;;;;;;;;;5012992;28;20092;-77
2022/03/03 06:24:52;;;;;;;22.95;12.68;;;;;;;;;;5017738;28;20080;-73
2022/03/03 06:27:18;;;;;;;10.77;8.27;;;;;;;;;;5028533;28;20053;-72
2022/03/03 06:29:44;;;;;;;13.13;9.05;;;;;;;;;;5028571;28;20030;-72
2022/03/03 06:32:11;;;;;;;14.30;10.50;;;;;;;;;;5028413;28;20092;-73
2022/03/03 06:34:37;;;;;;;11.10;8.95;;;;;;;;;;5028369;28;20038;-73
2022/03/03 06:37:03;;;;;;;16.15;9.80;;;;;;;;;;5030036;28;20049;-73
2022/03/03 06:39:29;;;;;;;9.05;7.95;;;;;;;;;;5023737;28;20185;-72
2022/03/03 06:41:55;;;;;;;15.25;9.50;;;;;;;;;;5006386;28;20144;-73
2022/03/03 06:44:21;;;;;;;15.82;12.02;;;;;;;;;;5017046;28;20502;-74
2022/03/03 06:46:47;;;;;;;27.15;13.70;;;;;;;;;;4975871;28;20058;-75
2022/03/03 06:49:14;;;;;;;12.77;8.90;;;;;;;;;;4992853;28;20042;-74
2022/03/03 06:51:43;;;;;;;20.38;11.18;;;;;;;;;;4993071;28;20536;-75
2022/03/03 06:54:13;;;;;;;15.68;9.93;;;;;;;;;;4992852;28;20058;-75
2022/03/03 06:56:45;;;;;;;25.33;9.70;;;;;;;;;;5021424;28;20818;-74
2022/03/03 06:59:11;;;;;;;16.98;10.73;;;;;;;;;;5000400;28;20035;-74
2022/03/03 07:01:36;;;;;;;11.90;8.95;;;;;;;;;;4992956;28;20066;-72
2022/03/03 07:04:03;;;;;;;11.43;8.13;;;;;;;;;;5010974;28;20410;-77
2022/03/03 07:06:29;;;;;;;16.98;9.38;;;;;;;;;;4982117;28;20057;-75
2022/03/03 07:08:55;;;;;;;14.55;9.55;;;;;;;;;;5012635;28;20045;-75
2022/03/03 07:11:22;;;;;;;18.88;9.10;;;;;;;;;;5007567;28;20050;-76
2022/03/03 07:13:49;;;;;;;12.25;8.77;;;;;;;;;;4975353;28;20101;-76
2022/03/03 07:16:33;;;;;;;10.52;9.25;;;;;;;;;;4992618;28;20477;-77
2022/03/03 07:18:59;;;;;;;14.07;8.13;;;;;;;;;;4992622;28;20418;-76
2022/03/03 07:21:34;;;;;;;18.55;9.25;;;;;;;;;;4992201;28;20423;-75
2022/03/03 07:24:03;;;;;;;14.32;9.88;;;;;;;;;;4992771;28;20778;-77
2022/03/03 07:26:31;;;;;;;11.32;8.18;;;;;;;;;;4988311;28;20059;-76
2022/03/03 07:28:57;;;;;;;16.52;10.30;;;;;;;;;;4973188;28;20137;-78
2022/03/03 07:31:23;;;;;;;19.40;8.70;;;;;;;;;;4956234;28;20042;-78
2022/03/03 07:33:56;;;;;;;15.20;9.70;;;;;;;;;;4956480;28;20043;-78
2022/03/03 07:36:23;;;;;;;16.73;9.88;;;;;;;;;;4957757;28;20149;-76
2022/03/03 07:38:57;;;;;;;19.38;8.80;;;;;;;;;;4997409;28;20077;-76
2022/03/03 07:41:25;;;;;;;16.30;10.07;;;;;;;;;;4989853;28;20058;-76
2022/03/03 07:43:51;;;;;;;15.80;8.70;;;;;;;;;;5010691;28;20064;-76
2022/03/03 07:46:17;;;;;;;12.60;9.02;;;;;;;;;;5008626;28;20082;-76
2022/03/03 07:48:44;;;;;;;12.60;8.73;;;;;;;;;;4979940;28;20046;-77
2022/03/03 07:51:12;;;;;;;16.42;9.38;;;;;;;;;;4992158;28;20097;-77
2022/03/03 07:53:38;;;;;;;14.77;9.57;;;;;;;;;;4991304;28;20039;-77
2022/03/03 07:56:04;;;;;;;11.98;8.10;;;;;;;;;;4975103;28;20050;-78
2022/03/03 07:58:31;;;;;;;11.18;8.55;;;;;;;;;;4974940;28;20593;-76
2022/03/03 08:00:58;;;;;;;22.35;9.80;;;;;;;;;;4991958;28;20077;-76
2022/03/03 08:03:25;;;;;;;11.80;8.50;;;;;;;;;;4991881;28;20042;-77
2022/03/03 08:05:52;;;;;;;16.08;10.48;;;;;;;;;;4994318;28;20169;-76
2022/03/03 08:08:22;;;;;;;9.73;6.90;;;;;;;;;;4975664;28;20589;-78
2022/03/03 08:10:48;;;;;;;15.15;10.70;;;;;;;;;;4991722;28;20042;-77
2022/03/03 08:13:15;;;;;;;21.85;12.60;;;;;;;;;;4986229;28;20046;-77
2022/03/03 08:15:41;;;;;;;21.48;12.57;;;;;;;;;;4988666;28;20411;-78
2022/03/03 08:18:08;;;;;;;19.38;12.88;;;;;;;;;;4982798;28;20137;-76
2022/03/03 08:20:34;;;;;;;21.88;12.85;;;;;;;;;;4954424;28;20399;-74
2022/03/03 08:23:00;;;;;;;27.67;13.77;;;;;;;;;;5007424;28;20060;-76
2022/03/03 08:25:26;;;;;;;19.95;12.07;;;;;;;;;;5021142;28;20062;-75
2022/03/03 08:27:53;;;;;;;29.23;11.38;;;;;;;;;;5030803;28;20045;-75
2022/03/03 08:30:19;;;;;;;25.05;12.32;;;;;;;;;;5030425;28;20037;-75
2022/03/03 08:32:50;;;;;;;23.23;11.75;;;;;;;;;;5030336;28;20111;-75
2022/03/03 08:35:18;;;;;;;26.67;10.50;;;;;;;;;;5012736;28;20077;-75
2022/03/03 08:37:49;;;;;;;15.07;10.95;;;;;;;;;;5012897;28;20046;-77
2022/03/03 08:40:17;;;;;;;16.75;10.80;;;;;;;;;;5030098;28;20057;-76
2022/03/03 08:42:44;;;;;;;16.55;11.40;;;;;;;;;;5030280;28;20053;-76
2022/03/03 08:45:10;;;;;;;19.90;12.27;;;;;;;;;;5023961;28;20034;-77
2022/03/03 08:47:37;;;;;;;28.55;12.20;;;;;;;;;;5010431;28;20433;-76
2022/03/03 08:50:05;;;;;;;23.58;11.82;;;;;;;;;;5010531;28;20113;-77
2022/03/03 08:52:31;;;;;;;19.40;12.32;;;;;;;;;;5010293;28;20092;-77
2022/03/03 08:54:56;;;;;;;18.52;12.27;;;;;;;;;;5010481;28;20046;-78
2022/03/03 08:57:22;;;;;;;17.92;11.43;;;;;;;;;;5012282;28;20148;-77
2022/03/03 08:59:48;;;;;;;16.52;11.98;;;;;;;;;;5029428;28;20041;-76
2022/03/03 09:02:16;;;;;;;14.35;11.35;;;;;;;;;;5029762;28;20421;-76
2022/03/03 09:04:45;;;;;;;21.73;12.10;;;;;;;;;;5029920;28;20034;-76
2022/03/03 09:07:11;;;;;;;19.15;10.80;;;;;;;;;;5029405;28;20041;-76
2022/03/03 09:09:37;;;;;;;16.35;9.45;;;;;;;;;;5025794;28;20042;-76
2022/03/03 09:12:04;;;;;;;26.48;9.70;;;;;;;;;;5010062;28;20418;-76
2022/03/03 09:14:30;;;;;;;18.52;10.23;;;;;;;;;;5009768;28;20532;-77
2022/03/03 09:16:56;;;;;;;18.02;10.27;;;;;;;;;;5010057;28;20581;-76
2022/03/03 09:19:22;;;;;;;35.42;10.52;;;;;;;;;;5010059;28;20116;-76
2022/03/03 09:21:48;;;;;;;23.33;9.75;;;;;;;;;;5010566;28;20211;-76
2022/03/03 09:24:13;;;;;;;14.07;10.27;;;;;;;;;;5010302;28;20200;-77
2022/03/03 09:26:39;;;;;;;17.02;9.23;;;;;;;;;;5009539;28;20058;-76
2022/03/03 09:29:05;;;;;;;15.85;8.52;;;;;;;;;;5010093;28;20072;-76
2022/03/03 09:31:32;;;;;;;10.55;8.50;;;;;;;;;;5009653;28;20054;-76
2022/03/03 09:33:58;;;;;;;17.88;9.43;;;;;;;;;;4992277;28;20200;-76
2022/03/03 09:36:24;;;;;;;15.27;9.10;;;;;;;;;;5009222;28;20045;-76
2022/03/03 09:38:50;;;;;;;12.18;10.10;;;;;;;;;;5022094;28;20037;-75
2022/03/03 09:41:16;;;;;;;12.63;8.52;;;;;;;;;;5028075;28;20154;-77
2022/03/03 09:43:42;;;;;;;16.35;9.50;;;;;;;;;;5017072;28;20057;-76
2022/03/03 09:46:08;;;;;;;17.60;9.88;;;;;;;;;;5009872;28;20065;-77
2022/03/03 09:48:34;;;;;;;20.20;9.57;;;;;;;;;;5008950;28;20406;-76
2022/03/03 09:51:00;;;;;;;13.15;10.15;;;;;;;;;;4991860;28;20136;-76
2022/03/03 09:53:27;;;;;;;15.43;9.90;;;;;;;;;;4991711;28;20152;-76
2022/03/03 09:55:52;;;;;;;18.45;10.05;;;;;;;;;;4991800;28;20521;-76
2022/03/03 09:58:18;;;;;;;14.73;10.15;;;;;;;;;;4991713;28;20084;-76
2022/03/03 10:00:46;;;;;;;33.50;12.13;;;;;;;;;;4991475;28;20536;-77
2022/03/03 10:03:14;;;;;;;11.60;8.60;;;;;;;;;;4991560;28;20595;-76
2022/03/03 10:05:47;;;;;;;11.18;8.75;;;;;;;;;;5008200;28;20038;-77
2022/03/03 10:08:14;;;;;;;12.27;8.27;;;;;;;;;;5009207;28;20505;-78
2022/03/03 10:10:40;;;;;;;18.83;10.65;;;;;;;;;;5008125;28;20054;-78
2022/03/03 10:13:07;;;;;;;12.40;7.22;;;;;;;;;;5024466;28;20147;-78
2022/03/03 10:15:33;;;;;;;11.70;8.23;;;;;;;;;;5013913;28;20037;-76
2022/03/03 10:18:03;;;;;;;13.68;8.23;;;;;;;;;;5002907;28;20037;-77
2022/03/03 10:20:30;;;;;;;19.02;8.95;;;;;;;;;;5028748;28;20042;-77
2022/03/03 10:22:59;;;;;;;14.82;8.80;;;;;;;;;;5011391;28;20058;-75
2022/03/03 10:25:52;;;;;;;15.30;8.80;;;;;;;;;;5027224;28;20144;-74
2022/03/03 10:28:19;;;;;;;17.65;9.00;;;;;;;;;;5025454;28;20056;-75
2022/03/03 10:30:52;;;;;;;20.33;8.65;;;;;;;;;;5028775;28;20215;-77
2022/03/03 10:33:19;;;;;;;15.88;8.70;;;;;;;;;;5019653;28;20045;-77
2022/03/03 10:35:58;;;;;;;18.33;9.30;;;;;;;;;;5006603;28;20045;-76
2022/03/03 10:38:24;;;;;;;13.73;9.50;;;;;;;;;;5003798;28;20053;-78
2022/03/03 10:40:50;;;;;;;15.43;10.73;;;;;;;;;;5028560;28;20521;-75
2022/03/03 10:43:17;;;;;;;12.95;9.30;;;;;;;;;;5010795;28;20053;-77
2022/03/03 10:45:56;;;;;;;17.83;7.55;;;;;;;;;;5026866;28;20493;-76
2022/03/03 10:48:22;;;;;;;13.27;8.30;;;;;;;;;;5008681;28;20038;-77
2022/03/03 10:50:48;;;;;;;16.27;9.25;;;;;;;;;;4991259;28;20084;-76
2022/03/03 10:53:20;;;;;;;16.48;8.45;;;;;;;;;;5008937;28;20041;-76
2022/03/03 10:56:05;;;;;;;10.55;8.45;;;;;;;;;;4991461;28;20129;-76
2022/03/03 10:58:44;;;;;;;11.80;9.68;;;;;;;;;;5000460;28;20050;-77
2022/03/03 11:01:10;;;;;;;14.43;8.85;;;;;;;;;;4993053;28;20117;-77
2022/03/03 11:03:36;;;;;;;10.57;7.95;;;;;;;;;;4989146;28;20054;-76
2022/03/03 11:06:03;;;;;;;15.85;8.45;;;;;;;;;;4988537;28;20128;-77
2022/03/03 11:08:29;;;;;;;12.30;7.80;;;;;;;;;;4971551;28;20051;-77
2022/03/03 11:10:55;;;;;;;9.52;7.70;;;;;;;;;;5003390;28;20414;-75
2022/03/03 11:13:21;;;;;;;9.73;6.68;;;;;;;;;;5007637;28;20038;-77
2022/03/03 11:15:48;;;;;;;11.38;6.93;;;;;;;;;;5008611;28;20092;-78
2022/03/03 11:18:18;;;;;;;7.88;7.00;;;;;;;;;;5007268;28;20132;-76
2022/03/03 11:20:46;;;;;;;9.05;6.57;;;;;;;;;;5007282;28;20518;-77
2022/03/03 11:23:12;;;;;;;12.68;7.18;;;;;;;;;;5029997;28;20584;-76
2022/03/03 11:25:38;;;;;;;6.60;5.88;;;;;;;;;;5019661;28;20058;-76
2022/03/03 11:28:08;;;;;;;10.57;6.80;;;;;;;;;;5012487;28;20188;-77
2022/03/03 11:30:34;;;;;;;12.05;5.80;;;;;;;;;;5031836;28;20506;-76
2022/03/03 11:33:19;;;;;;;6.78;6.15;;;;;;;;;;5032070;28;20034;-77
2022/03/03 11:35:48;;;;;;;8.65;6.72;;;;;;;;;;5017961;28;20153;-77
2022/03/03 11:38:15;;;;;;;11.15;5.63;;;;;;;;;;5012133;28;20042;-77
2022/03/03 11:40:51;;;;;;;7.57;6.43;;;;;;;;;;5010914;28;20046;-76
2022/03/03 11:43:17;;;;;;;7.65;5.22;;;;;;;;;;5008544;28;20452;-76
2022/03/03 11:45:52;;;;;;;6.47;4.50;;;;;;;;;;5032285;28;20044;-75
2022/03/03 11:48:20;;;;;;;7.68;5.13;;;;;;;;;;5031947;28;20049;-76
2022/03/03 11:50:46;;;;;;;7.50;5.88;;;;;;;;;;5023414;28;20046;-77
2022/03/03 11:53:18;;;;;;;6.00;5.40;;;;;;;;;;5029664;28;20037;-74
2022/03/03 11:55:48;;;;;;;6.80;6.07;;;;;;;;;;5031591;28;20157;-76
2022/03/03 11:58:15;;;;;;;7.75;5.25;;;;;;;;;;5031977;28;20090;-77
2022/03/03 12:00:43;;;;;;;7.32;5.50;;;;;;;;;;5033706;28;20049;-77
2022/03/03 12:03:12;;;;;;;8.10;5.97;;;;;;;;;;5037633;28;20044;-77
2022/03/03 12:05:42;;;;;;;7.30;5.07;;;;;;;;;;5039928;28;20090;-75
2022/03/03 12:08:11;;;;;;;5.72;4.95;;;;;;;;;;5038017;28;20513;-77
2022/03/03 12:10:38;;;;;;;6.35;4.22;;;;;;;;;;5009522;28;20046;-78
2022/03/03 12:13:24;;;;;;;6.90;4.10;;;;;;;;;;4996883;28;20038;-77
2022/03/03 12:16:22;;;;;;;6.13;4.50;;;;;;;;;;4991560;28;20073;-77
2022/03/03 12:18:48;;;;;;;6.70;4.32;;;;;;;;;;4949765;28;20153;-76
2022/03/03 12:21:23;;;;;;;5.20;4.70;;;;;;;;;;4991507;28;20057;-76
2022/03/03 12:23:49;;;;;;;6.50;3.80;;;;;;;;;;4992041;28;20050;-77
2022/03/03 12:26:16;;;;;;;4.60;4.20;;;;;;;;;;4991302;28;20066;-77
2022/03/03 12:28:45;;;;;;;6.85;3.95;;;;;;;;;;4974034;28;20046;-77
2022/03/03 12:31:37;;;;;;;5.60;3.33;;;;;;;;;;4991401;28;20050;-77
2022/03/03 12:34:05;;;;;;;4.25;3.63;;;;;;;;;;5025346;28;20038;-77
2022/03/03 12:36:31;;;;;;;10.27;3.63;;;;;;;;;;5030268;28;20124;-77
2022/03/03 12:38:57;;;;;;;3.55;3.25;;;;;;;;;;5030571;28;20041;-77
2022/03/03 12:41:27;;;;;;;6.18;3.92;;;;;;;;;;5028847;28;20068;-78
2022/03/03 12:43:53;;;;;;;8.40;4.35;;;;;;;;;;5030236;28;20459;-73
2022/03/03 12:46:19;;;;;;;8.82;4.55;;;;;;;;;;5030511;28;20501;-75
2022/03/03 12:48:45;;;;;;;5.07;4.65;;;;;;;;;;5030187;28;20045;-78
2022/03/03 12:51:11;;;;;;;4.97;4.45;;;;;;;;;;5012471;28;20037;-77
2022/03/03 12:53:43;;;;;;;6.45;5.05;;;;;;;;;;5012788;28;20045;-77
2022/03/03 12:56:09;;;;;;;5.45;4.38;;;;;;;;;;5030204;28;20619;-77
2022/03/03 12:58:35;;;;;;;5.97;4.93;;;;;;;;;;5029967;28;20505;-77
2022/03/03 13:01:01;;;;;;;4.80;4.40;;;;;;;;;;5012434;28;20045;-75
2022/03/03 13:03:31;;;;;;;5.03;4.63;;;;;;;;;;5029869;28;20041;-77
2022/03/03 13:05:58;;;;;;;5.05;4.40;;;;;;;;;;5030061;28;20103;-75
2022/03/03 13:08:27;;;;;;;7.88;5.22;;;;;;;;;;4996010;28;20140;-75
2022/03/03 13:10:57;;;;;;;5.85;4.43;;;;;;;;;;5015479;28;20673;-76
2022/03/03 13:13:23;;;;;;;4.32;4.00;;;;;;;;;;4992702;28;20049;-77
2022/03/03 13:15:50;;;;;;;5.57;3.90;;;;;;;;;;5010306;28;20069;-76
2022/03/03 13:18:17;;;;;;;4.35;3.78;;;;;;;;;;4992502;28;20049;-77
2022/03/03 13:20:44;;;;;;;3.83;3.53;;;;;;;;;;5009910;28;20049;-77
2022/03/03 13:23:11;;;;;;;4.40;3.60;;;;;;;;;;4992716;28;20049;-78
2022/03/03 13:25:37;;;;;;;4.18;3.60;;;;;;;;;;4992183;28;20057;-76
2022/03/03 13:28:03;;;;;;;7.78;3.72;;;;;;;;;;4992663;28;20057;-77
2022/03/03 13:30:29;;;;;;;7.35;4.53;;;;;;;;;;5009849;28;20532;-79
2022/03/03 13:32:55;;;;;;;4.20;3.88;;;;;;;;;;5010156;28;20065;-78
2022/03/03 13:35:23;;;;;;;4.40;3.25;;;;;;;;;;4992234;28;20049;-75
2022/03/03 13:37:49;;;;;;;4.82;3.85;;;;;;;;;;5009795;28;20042;-76
2022/03/03 13:40:15;;;;;;;4.38;3.85;;;;;;;;;;5008686;28;20108;-75
2022/03/03 13:42:41;;;;;;;4.30;4.00;;;;;;;;;;5009265;28;20088;-75
2022/03/03 13:45:08;;;;;;;3.95;3.47;;;;;;;;;;5009672;28;20176;-77
2022/03/03 13:47:38;;;;;;;8.32;4.28;;;;;;;;;;5008575;28;20141;-76
2022/03/03 13:50:06;;;;;;;7.70;4.32;;;;;;;;;;5009930;28;20046;-77
2022/03/03 13:52:35;;;;;;;4.07;3.72;;;;;;;;;;5009122;28;20042;-77
2022/03/03 13:55:04;;;;;;;7.60;4.40;;;;;;;;;;5011048;28;20050;-77
2022/03/03 13:57:30;;;;;;;4.90;3.78;;;;;;;;;;5010292;28;20037;-77
2022/03/03 13:59:57;;;;;;;5.20;3.67;;;;;;;;;;5011220;28;20521;-77
2022/03/03 14:02:22;;;;;;;5.22;3.55;;;;;;;;;;5011371;28;20053;-77
2022/03/03 14:04:59;;;;;;;6.72;3.65;;;;;;;;;;5011600;28;20042;-76
2022/03/03 14:07:25;;;;;;;5.85;3.90;;;;;;;;;;4992033;28;20038;-77
2022/03/03 14:09:55;;;;;;;4.60;3.50;;;;;;;;;;5006815;28;20074;-76
2022/03/03 14:12:20;;;;;;;4.35;3.92;;;;;;;;;;5026496;28;20042;-74
2022/03/03 14:14:46;;;;;;;5.75;5.10;;;;;;;;;;5028851;28;20110;-74
2022/03/03 14:17:13;;;;;;;6.97;6.10;;;;;;;;;;5005726;28;20064;-72
2022/03/03 14:19:41;;;;;;;6.53;5.47;;;;;;;;;;4998436;28;20217;-73
2022/03/03 14:22:07;;;;;;;9.93;5.45;;;;;;;;;;4999534;28;20049;-73
2022/03/03 14:24:34;;;;;;;9.25;6.10;;;;;;;;;;4993466;28;20109;-73
2022/03/03 14:27:00;;;;;;;6.97;4.95;;;;;;;;;;5005901;28;20859;-75
2022/03/03 14:29:26;;;;;;;7.78;5.43;;;;;;;;;;5027806;28;20042;-75
2022/03/03 14:31:52;;;;;;;5.82;5.28;;;;;;;;;;4995694;28;20487;-75
2022/03/03 14:34:18;;;;;;;7.25;6.53;;;;;;;;;;4962947;28;20045;-75
2022/03/03 14:36:44;;;;;;;8.90;6.35;;;;;;;;;;5028253;28;20098;-74
2022/03/03 14:39:11;;;;;;;7.57;6.45;;;;;;;;;;5028935;28;20128;-75
2022/03/03 14:41:37;;;;;;;5.90;5.03;;;;;;;;;;5028369;28;20778;-74
2022/03/03 14:44:03;;;;;;;6.07;5.55;;;;;;;;;;5028933;28;20120;-75
2022/03/03 14:46:30;;;;;;;22.00;7.93;;;;;;;;;;5013017;28;20054;-76
2022/03/03 14:48:56;;;;;;;9.10;7.60;;;;;;;;;;4997233;28;20039;-75
2022/03/03 14:51:22;;;;;;;7.10;6.13;;;;;;;;;;4989118;28;20042;-76
2022/03/03 14:53:48;;;;;;;8.55;5.30;;;;;;;;;;4989104;28;20056;-75
2022/03/03 14:56:14;;;;;;;9.02;3.92;;;;;;;;;;5016787;28;20048;-73
2022/03/03 14:58:40;;;;;;;8.32;4.20;;;;;;;;;;5030744;28;20041;-75